This is the latest recevied weather packets stored in our database for station/object KB9HUO. If no packets are shown the sender has not sent any weather packets the latest 10 day(s).
| Time | Temp. | Humidity | Pressure | Rain* | Wind** | Luminosity | Snow |
|---|---|---|---|---|---|---|---|
| 1788529853 | 27.78° C | 84% | 1017.5 hPa | 0 mm | - | 51 W/m² | - |
| 1788529549 | 27.22° C | 86% | 1017.7 hPa | 0 mm | - | 52 W/m² | - |
| 1788529242 | 26.67° C | 88% | 1017.8 hPa | 0 mm | - | 50 W/m² | - |
| 1788528937 | 26.67° C | 90% | 1017.6 hPa | 0 mm | - | 47 W/m² | - |
| 1788528633 | 26.11° C | 91% | 1017.7 hPa | 0 mm | - | 46 W/m² | - |
| 1788528328 | 25.56° C | 93% | 1017.6 hPa | 0 mm | - | 45 W/m² | - |
| 1788528027 | 25.56° C | 95% | 1017.6 hPa | 0 mm | - | 44 W/m² | - |
| 1788527753 | 25° C | 97% | 1017.8 hPa | 0 mm | - | 42 W/m² | - |
| 1788527423 | 24.44° C | 98% | 1017.5 hPa | 0 mm | - | 41 W/m² | - |
| 1788527123 | 24.44° C | 98% | 1017.7 hPa | 0 mm | - | 42 W/m² | - |
| 1788526823 | 23.89° C | 99% | 1017.3 hPa | 0 mm | - | 37 W/m² | - |
| 1788526520 | 23.89° C | 99% | 1017.6 hPa | 0 mm | - | 37 W/m² | - |
| 1788526214 | 23.89° C | 99% | 1017.4 hPa | 0 mm | - | 34 W/m² | - |
| 1788525910 | 23.33° C | 99% | 1017.2 hPa | 0 mm | - | 32 W/m² | - |
| 1788525606 | 23.33° C | 99% | 1017.3 hPa | 0 mm | - | 30 W/m² | - |
| 1788525305 | 22.78° C | 99% | 1017.5 hPa | 0 mm | - | 29 W/m² | - |
| 1788525000 | 22.78° C | 99% | 1017.3 hPa | 0 mm | - | 27 W/m² | - |
| 1788524696 | 22.22° C | 99% | 1017.1 hPa | 0 mm | - | 26 W/m² | - |
| 1788524390 | 22.22° C | 99% | 1017 hPa | 0 mm | - | 24 W/m² | - |
| 1788524086 | 21.67° C | 99% | 1017.2 hPa | 0 mm | - | 22 W/m² | - |
| 1788523783 | 21.67° C | 99% | 1017.1 hPa | 0 mm | - | 21 W/m² | - |
| 1788523478 | 21.67° C | 99% | 1017 hPa | 0 mm | - | 19 W/m² | - |
| 1788523178 | 21.67° C | 99% | 1016.8 hPa | 0 mm | - | 17 W/m² | - |
| 1788522874 | 21.67° C | 99% | 1016.8 hPa | 0 mm | - | 15 W/m² | - |
| 1788522574 | 21.67° C | 98% | 1016.9 hPa | 0 mm | - | 13 W/m² | - |
* Rain latest hour (hover to see other rain measurements)
** Current wind speed in m/s (hover to see current wind gust speed)